createdAt,value
2018-01-18T00:01:15.983Z,1.40
2018-01-18T00:03:44.233Z,1.40
2018-01-18T00:06:12.499Z,1.50
2018-01-18T00:08:40.792Z,1.40
2018-01-18T00:11:09.843Z,1.40
2018-01-18T00:13:38.423Z,1.40
2018-01-18T00:16:06.668Z,1.40
2018-01-18T00:18:35.154Z,1.40
2018-01-18T00:21:04.202Z,1.50
2018-01-18T00:23:32.444Z,1.50
2018-01-18T00:26:01.526Z,1.60
2018-01-18T00:28:30.640Z,1.50
2018-01-18T00:30:58.902Z,1.60
2018-01-18T00:33:28.086Z,1.70
2018-01-18T00:35:56.374Z,1.70
2018-01-18T00:38:24.652Z,1.70
2018-01-18T00:40:52.991Z,1.70
2018-01-18T00:43:21.249Z,1.80
2018-01-18T00:45:49.536Z,1.80
2018-01-18T00:48:17.827Z,1.80
2018-01-18T00:50:46.131Z,1.80
2018-01-18T00:53:14.625Z,1.80
2018-01-18T00:55:42.920Z,1.80
2018-01-18T00:58:11.997Z,1.80
2018-01-18T01:00:40.320Z,1.80
2018-01-18T01:03:08.604Z,1.80
2018-01-18T01:05:36.958Z,1.80
2018-01-18T01:08:06.055Z,1.80
2018-01-18T01:10:34.470Z,1.80
2018-01-18T01:13:02.736Z,1.80
2018-01-18T01:15:31.343Z,1.80
2018-01-18T01:18:00.402Z,1.80
2018-01-18T01:20:29.488Z,1.80
2018-01-18T01:22:57.729Z,1.80
2018-01-18T01:25:25.976Z,1.80
2018-01-18T01:27:54.272Z,1.80
2018-01-18T01:30:22.509Z,1.90
2018-01-18T01:32:51.728Z,1.90
2018-01-18T01:35:20.001Z,1.90
2018-01-18T01:37:48.249Z,1.90
2018-01-18T01:40:16.580Z,2.00
2018-01-18T01:42:44.866Z,2.00
2018-01-18T01:45:13.136Z,2.00
2018-01-18T01:47:41.377Z,1.90
2018-01-18T01:50:10.412Z,1.90
2018-01-18T01:52:38.652Z,1.90
2018-01-18T01:55:07.681Z,2.00
2018-01-18T01:57:35.981Z,2.00
2018-01-18T02:00:04.265Z,2.00
2018-01-18T02:02:32.588Z,2.00
2018-01-18T02:05:00.933Z,2.00
2018-01-18T02:07:29.164Z,2.10
2018-01-18T02:09:57.428Z,2.10
2018-01-18T02:12:25.804Z,2.10
2018-01-18T02:14:54.041Z,2.20
2018-01-18T02:17:22.308Z,2.10
2018-01-18T02:19:50.687Z,2.10
2018-01-18T02:22:18.932Z,2.00
2018-01-18T02:24:47.200Z,2.10
2018-01-18T02:27:15.576Z,2.10
2018-01-18T02:29:44.044Z,2.00
2018-01-18T02:32:12.280Z,2.10
2018-01-18T02:34:40.585Z,2.00
2018-01-18T02:37:08.828Z,2.00
2018-01-18T02:39:37.857Z,2.00
2018-01-18T02:42:06.129Z,2.00
2018-01-18T02:44:35.182Z,2.10
2018-01-18T02:47:03.408Z,2.10
2018-01-18T02:49:31.724Z,2.10
2018-01-18T02:52:00.060Z,2.20
2018-01-18T02:54:29.044Z,2.20
2018-01-18T02:56:58.147Z,2.30
2018-01-18T02:59:26.464Z,2.30
2018-01-18T03:01:54.797Z,2.30
2018-01-18T03:04:23.146Z,2.30
2018-01-18T03:06:51.428Z,2.30
2018-01-18T03:09:19.690Z,2.30
2018-01-18T03:11:47.977Z,2.40
2018-01-18T03:14:16.213Z,2.40
2018-01-18T03:16:44.458Z,2.40
2018-01-18T03:19:12.730Z,2.40
2018-01-18T03:21:42.280Z,2.40
2018-01-18T03:24:10.524Z,2.40
2018-01-18T03:26:38.788Z,2.40
2018-01-18T03:29:07.844Z,2.40
2018-01-18T03:31:36.013Z,2.40
2018-01-18T03:34:04.372Z,2.30
2018-01-18T03:36:32.704Z,2.30
2018-01-18T03:39:01.696Z,2.30
2018-01-18T03:41:30.779Z,2.30
2018-01-18T03:43:59.025Z,2.30
2018-01-18T03:46:27.252Z,2.30
2018-01-18T03:48:56.289Z,2.40
2018-01-18T03:51:24.538Z,2.30
2018-01-18T03:53:52.986Z,2.30
2018-01-18T03:56:21.399Z,2.40
2018-01-18T03:58:49.660Z,2.50
2018-01-18T04:01:18.712Z,2.40
2018-01-18T04:03:47.188Z,2.40
2018-01-18T04:06:15.468Z,2.40
2018-01-18T04:08:43.706Z,2.40
2018-01-18T04:11:12.069Z,2.40
2018-01-18T04:13:40.325Z,2.40
2018-01-18T04:16:08.817Z,2.40
2018-01-18T04:18:38.087Z,2.40
2018-01-18T04:21:06.345Z,2.40
2018-01-18T04:23:34.768Z,2.40
2018-01-18T04:26:03.856Z,2.50
2018-01-18T04:28:32.712Z,2.50
2018-01-18T04:31:01.292Z,2.50
2018-01-18T04:33:29.647Z,2.50
2018-01-18T04:35:57.869Z,2.50
2018-01-18T04:38:26.111Z,2.50
2018-01-18T04:40:55.609Z,2.40
2018-01-18T04:43:23.878Z,2.40
2018-01-18T04:45:52.155Z,2.40
2018-01-18T04:48:20.434Z,2.40
2018-01-18T04:50:48.672Z,2.40
2018-01-18T04:53:17.937Z,2.40
2018-01-18T04:55:46.256Z,2.40
2018-01-18T04:58:15.252Z,2.30
2018-01-18T05:00:44.269Z,2.20
2018-01-18T05:03:13.784Z,2.20
2018-01-18T05:05:42.040Z,2.20
2018-01-18T05:08:10.300Z,2.20
2018-01-18T05:10:39.380Z,2.10
2018-01-18T05:13:07.838Z,2.10
2018-01-18T05:15:36.304Z,2.10
2018-01-18T05:18:04.704Z,2.00
2018-01-18T05:20:33.002Z,2.00
2018-01-18T05:23:01.261Z,2.00
2018-01-18T05:25:29.814Z,2.00
2018-01-18T05:27:58.057Z,2.00
2018-01-18T05:30:27.057Z,1.90
2018-01-18T05:32:55.336Z,1.90
2018-01-18T05:35:23.609Z,2.00
2018-01-18T05:37:51.870Z,2.00
2018-01-18T05:40:21.033Z,2.00
2018-01-18T05:42:49.436Z,2.00
2018-01-18T05:45:17.701Z,2.00
2018-01-18T05:47:45.980Z,2.00
2018-01-18T05:50:14.205Z,2.00
2018-01-18T05:52:42.444Z,1.90
2018-01-18T05:55:10.708Z,2.00
2018-01-18T05:57:38.937Z,2.00
2018-01-18T06:00:07.189Z,2.00
2018-01-18T06:02:36.295Z,1.90
2018-01-18T06:05:05.277Z,1.90
2018-01-18T06:07:34.350Z,1.90
2018-01-18T06:10:02.632Z,1.90
2018-01-18T06:12:31.645Z,1.90
2018-01-18T06:14:59.956Z,1.90
2018-01-18T06:17:28.232Z,2.00
2018-01-18T06:19:56.469Z,2.00
2018-01-18T06:22:25.464Z,2.10
2018-01-18T06:24:53.720Z,2.10
2018-01-18T06:27:22.064Z,2.10
2018-01-18T06:29:50.298Z,2.20
2018-01-18T06:32:18.631Z,2.40
2018-01-18T06:34:46.861Z,2.30
2018-01-18T06:37:15.890Z,2.40
2018-01-18T06:39:44.192Z,2.30
2018-01-18T06:42:12.413Z,2.40
2018-01-18T06:44:41.417Z,2.40
2018-01-18T06:47:09.702Z,2.40
2018-01-18T06:49:38.845Z,2.40
2018-01-18T06:52:07.119Z,2.40
2018-01-18T06:54:35.423Z,2.40
2018-01-18T06:57:03.669Z,2.40
2018-01-18T06:59:31.898Z,2.50
2018-01-18T07:02:00.142Z,2.50
2018-01-18T07:04:28.375Z,2.50
2018-01-18T07:06:56.604Z,2.50
2018-01-18T07:09:25.610Z,2.50
2018-01-18T07:11:54.628Z,2.50
2018-01-18T07:14:22.913Z,2.50
2018-01-18T07:16:51.277Z,2.50
2018-01-18T07:19:19.520Z,2.50
2018-01-18T07:21:48.548Z,2.60
2018-01-18T07:24:16.822Z,2.50
2018-01-18T07:26:45.802Z,2.60
2018-01-18T07:29:14.110Z,2.50
2018-01-18T07:31:42.459Z,2.60
2018-01-18T07:34:10.777Z,2.50
2018-01-18T07:36:39.026Z,2.60
2018-01-18T07:39:07.300Z,2.50
2018-01-18T07:41:35.672Z,2.50
2018-01-18T07:44:03.873Z,2.40
2018-01-18T07:46:32.213Z,2.50
2018-01-18T07:49:01.205Z,2.30
2018-01-18T07:51:30.264Z,2.40
2018-01-18T07:53:59.621Z,2.40
2018-01-18T07:56:27.873Z,2.50
2018-01-18T07:58:56.931Z,2.50
2018-01-18T08:01:27.621Z,2.50
2018-01-18T08:04:12.734Z,2.50
2018-01-18T08:06:40.972Z,2.50
2018-01-18T08:09:09.207Z,2.60
2018-01-18T08:11:37.671Z,2.60
2018-01-18T08:14:05.956Z,2.70
2018-01-18T08:16:34.189Z,2.80
2018-01-18T08:19:02.631Z,2.80
2018-01-18T08:21:31.526Z,2.90
2018-01-18T08:23:59.728Z,2.90
2018-01-18T08:26:27.968Z,2.90
2018-01-18T08:28:56.993Z,2.90
2018-01-18T08:31:25.236Z,3.00
2018-01-18T08:36:20.364Z,3.00
2018-01-18T08:38:48.584Z,3.00
2018-01-18T08:41:16.857Z,3.00
2018-01-18T08:43:45.139Z,3.00
2018-01-18T08:46:13.380Z,3.00
2018-01-18T08:48:42.404Z,3.10
2018-01-18T08:51:10.695Z,3.10
2018-01-18T08:53:38.930Z,3.10
2018-01-18T08:56:07.257Z,3.10
2018-01-18T08:58:35.629Z,3.10
2018-01-18T09:01:04.778Z,3.10
2018-01-18T09:03:33.773Z,3.10
2018-01-18T09:06:02.048Z,3.10
2018-01-18T09:08:31.040Z,3.20
2018-01-18T09:10:59.270Z,3.10
2018-01-18T09:13:27.517Z,3.10
2018-01-18T09:15:55.744Z,3.10
2018-01-18T09:18:24.021Z,3.10
2018-01-18T09:20:52.316Z,3.10
2018-01-18T09:23:21.312Z,3.10
2018-01-18T09:25:50.310Z,3.20
2018-01-18T09:28:19.400Z,3.20
2018-01-18T09:30:48.396Z,3.20
2018-01-18T09:33:16.676Z,3.20
2018-01-18T09:35:44.953Z,3.20
2018-01-18T09:38:13.257Z,3.10
2018-01-18T09:40:41.476Z,3.10
2018-01-18T09:43:10.574Z,3.20
2018-01-18T09:45:39.204Z,3.20
2018-01-18T09:48:07.432Z,3.20
2018-01-18T09:50:35.736Z,3.20
2018-01-18T09:53:04.046Z,3.20
2018-01-18T09:55:32.280Z,3.30
2018-01-18T09:58:01.301Z,3.30
2018-01-18T10:00:29.587Z,3.30
2018-01-18T10:02:57.868Z,3.40
2018-01-18T10:05:26.213Z,3.40
2018-01-18T10:07:55.381Z,3.40
2018-01-18T10:10:23.721Z,3.40
2018-01-18T10:12:52.258Z,3.40
2018-01-18T10:15:21.250Z,3.60
2018-01-18T10:17:50.243Z,3.60
2018-01-18T10:20:19.320Z,3.70
2018-01-18T10:22:47.689Z,3.70
2018-01-18T10:25:15.936Z,3.80
2018-01-18T10:27:44.235Z,3.90
2018-01-18T10:30:12.473Z,4.00
2018-01-18T10:32:40.940Z,4.00
2018-01-18T10:35:10.240Z,4.10
2018-01-18T10:37:38.611Z,4.10
2018-01-18T10:40:06.940Z,4.30
2018-01-18T10:42:35.295Z,4.30
2018-01-18T10:45:03.847Z,4.20
2018-01-18T10:47:32.949Z,4.20
2018-01-18T10:50:02.187Z,4.20
2018-01-18T10:52:30.580Z,4.20
2018-01-18T10:54:58.893Z,4.20
2018-01-18T10:57:27.164Z,4.20
2018-01-18T10:59:55.416Z,4.20
2018-01-18T11:02:23.628Z,4.20
2018-01-18T11:04:52.647Z,4.50
2018-01-18T11:07:21.645Z,4.50
2018-01-18T11:09:49.876Z,4.50
2018-01-18T11:12:18.160Z,4.50
2018-01-18T11:14:47.205Z,4.70
2018-01-18T11:17:15.461Z,4.70
2018-01-18T11:19:43.744Z,4.80
2018-01-18T11:22:14.726Z,4.80
2018-01-18T11:24:43.184Z,4.90
2018-01-18T11:27:11.441Z,4.90
2018-01-18T11:29:39.726Z,4.80
2018-01-18T11:32:08.025Z,4.90
2018-01-18T11:34:36.285Z,5.00
2018-01-18T11:37:04.612Z,5.00
2018-01-18T11:39:33.603Z,5.20
2018-01-18T11:42:02.692Z,5.30
2018-01-18T11:44:31.044Z,5.20
2018-01-18T11:46:59.368Z,5.50
2018-01-18T11:49:28.374Z,5.70
2018-01-18T11:51:56.834Z,5.70
2018-01-18T11:54:25.355Z,5.70
2018-01-18T11:56:53.620Z,5.70
2018-01-18T11:59:21.930Z,5.70
2018-01-18T12:01:50.373Z,5.70
2018-01-18T12:04:19.421Z,5.80
2018-01-18T12:06:47.688Z,5.80
2018-01-18T12:09:15.918Z,5.80
2018-01-18T12:11:44.249Z,5.80
2018-01-18T12:14:12.481Z,5.90
2018-01-18T12:16:41.196Z,5.80
2018-01-18T12:19:09.742Z,5.70
2018-01-18T12:21:37.992Z,5.90
2018-01-18T12:24:07.036Z,6.20
2018-01-18T12:26:35.388Z,6.20
2018-01-18T12:29:04.530Z,6.20
2018-01-18T12:31:32.813Z,6.20
2018-01-18T12:34:01.141Z,6.20
2018-01-18T12:36:29.378Z,6.30
2018-01-18T12:38:57.873Z,6.30
2018-01-18T12:41:26.132Z,6.40
2018-01-18T12:43:54.382Z,6.50
2018-01-18T12:46:22.640Z,6.70
2018-01-18T12:48:51.012Z,6.70
2018-01-18T12:51:19.259Z,6.80
2018-01-18T12:53:47.507Z,6.80
2018-01-18T12:56:15.776Z,6.80
2018-01-18T12:58:44.076Z,7.00
2018-01-18T13:01:12.424Z,7.00
2018-01-18T13:03:40.829Z,7.00
2018-01-18T13:06:09.217Z,7.00
2018-01-18T13:08:37.448Z,7.10
2018-01-18T13:11:06.055Z,7.10
2018-01-18T13:13:34.362Z,7.00
2018-01-18T13:16:03.393Z,6.90
2018-01-18T13:18:31.689Z,6.80
2018-01-18T13:20:59.967Z,6.80
2018-01-18T13:23:28.193Z,6.60
2018-01-18T13:25:56.440Z,6.60
2018-01-18T13:28:24.721Z,6.60
2018-01-18T13:30:52.992Z,6.60
2018-01-18T13:33:21.374Z,6.60
2018-01-18T13:35:49.637Z,6.50
2018-01-18T13:38:17.900Z,6.60
2018-01-18T13:40:47.486Z,6.60
2018-01-18T13:43:15.790Z,6.60
2018-01-18T13:45:45.834Z,6.70
2018-01-18T13:48:14.089Z,6.70
2018-01-18T13:50:43.088Z,6.90
2018-01-18T13:53:12.177Z,7.00
2018-01-18T13:55:41.288Z,7.00
2018-01-18T13:58:09.517Z,7.00
2018-01-18T14:00:37.917Z,7.00
2018-01-18T14:03:06.939Z,7.00
2018-01-18T14:05:35.198Z,7.00
2018-01-18T14:08:04.182Z,7.10
2018-01-18T14:10:33.278Z,7.00
2018-01-18T14:13:01.735Z,7.00
2018-01-18T14:15:30.087Z,7.00
2018-01-18T14:17:58.319Z,7.10
2018-01-18T14:20:26.560Z,7.00
2018-01-18T14:22:54.885Z,7.10
2018-01-18T14:25:23.907Z,7.30
2018-01-18T14:27:52.177Z,7.30
2018-01-18T14:30:20.409Z,7.20
2018-01-18T14:32:49.449Z,7.20
2018-01-18T14:35:17.674Z,7.20
2018-01-18T14:37:45.973Z,7.30
2018-01-18T14:40:14.270Z,7.20
2018-01-18T14:42:43.236Z,7.10
2018-01-18T14:45:12.272Z,7.00
2018-01-18T14:47:40.542Z,7.00
2018-01-18T14:50:08.765Z,7.00
2018-01-18T14:52:37.008Z,7.10
2018-01-18T14:55:05.281Z,7.10
2018-01-18T14:57:33.569Z,7.00
2018-01-18T15:00:02.048Z,7.00
2018-01-18T15:02:30.392Z,7.10
2018-01-18T15:04:58.624Z,7.00
2018-01-18T15:07:26.904Z,6.90
2018-01-18T15:09:55.160Z,6.90
2018-01-18T15:12:23.487Z,6.90
2018-01-18T15:14:51.733Z,7.00
2018-01-18T15:17:20.011Z,6.80
2018-01-18T15:19:48.297Z,6.90
2018-01-18T15:22:17.289Z,6.80
2018-01-18T15:24:46.645Z,6.70
2018-01-18T15:27:14.922Z,6.70
2018-01-18T15:29:43.196Z,6.70
2018-01-18T15:32:11.594Z,6.70
2018-01-18T15:34:39.876Z,6.80
2018-01-18T15:37:08.886Z,6.70
2018-01-18T15:39:37.190Z,6.60
2018-01-18T15:42:06.209Z,6.60
2018-01-18T15:44:34.577Z,6.60
2018-01-18T15:47:02.871Z,6.50
2018-01-18T15:49:32.400Z,6.60
2018-01-18T15:52:01.058Z,6.40
2018-01-18T15:54:29.549Z,6.40
2018-01-18T15:56:57.767Z,6.30
2018-01-18T15:59:26.216Z,6.30
2018-01-18T16:01:54.540Z,6.40
2018-01-18T16:04:22.832Z,6.30
2018-01-18T16:06:51.914Z,6.30
2018-01-18T16:09:20.201Z,6.30
2018-01-18T16:11:49.208Z,6.30
2018-01-18T16:14:17.486Z,6.30
2018-01-18T16:16:46.117Z,6.40
2018-01-18T16:19:14.381Z,6.20
2018-01-18T16:21:42.652Z,6.20
2018-01-18T16:24:10.925Z,6.10
2018-01-18T16:26:39.211Z,6.10
2018-01-18T16:29:07.688Z,5.90
2018-01-18T16:31:36.104Z,5.90
2018-01-18T16:34:04.364Z,6.00
2018-01-18T16:36:32.617Z,5.90
2018-01-18T16:39:00.904Z,5.80
2018-01-18T16:41:29.171Z,5.90
2018-01-18T16:43:57.427Z,5.80
2018-01-18T16:46:25.722Z,5.80
2018-01-18T16:48:53.963Z,5.60
2018-01-18T16:51:22.196Z,5.60
2018-01-18T16:53:50.525Z,5.50
2018-01-18T16:56:18.785Z,5.50
2018-01-18T16:58:47.844Z,5.20
2018-01-18T17:01:16.134Z,5.20
2018-01-18T17:03:44.377Z,5.20
2018-01-18T17:06:12.624Z,5.10
2018-01-18T17:08:40.880Z,5.10
2018-01-18T17:11:09.888Z,5.10
2018-01-18T17:13:38.284Z,5.10
2018-01-18T17:16:06.589Z,5.10
2018-01-18T17:18:34.820Z,5.00
2018-01-18T17:21:03.896Z,4.80
2018-01-18T17:23:32.232Z,4.80
2018-01-18T17:26:01.243Z,4.90
2018-01-18T17:28:29.618Z,4.90
2018-01-18T17:33:28.644Z,4.80
2018-01-18T17:35:56.894Z,4.70
2018-01-18T17:38:25.147Z,4.70
2018-01-18T17:40:53.401Z,4.70
2018-01-18T17:43:21.780Z,4.70
2018-01-18T17:45:52.598Z,4.70
2018-01-18T17:48:22.049Z,4.60
2018-01-18T17:50:50.601Z,4.60
2018-01-18T17:53:19.593Z,4.50
2018-01-18T17:55:49.376Z,4.50
2018-01-18T17:58:18.024Z,4.50
2018-01-18T18:00:46.435Z,4.60
2018-01-18T18:03:15.764Z,4.50
2018-01-18T18:05:44.030Z,4.50
2018-01-18T18:08:12.699Z,4.50
2018-01-18T18:10:41.132Z,4.60
2018-01-18T18:13:09.549Z,4.60
2018-01-18T18:15:37.766Z,4.50
2018-01-18T18:18:06.097Z,4.50
2018-01-18T18:20:34.335Z,4.60
2018-01-18T18:23:03.506Z,4.60
2018-01-18T18:25:31.751Z,4.60
2018-01-18T18:28:00.045Z,4.60
2018-01-18T18:30:28.507Z,4.60
2018-01-18T18:32:56.856Z,4.70
2018-01-18T18:35:25.072Z,4.60
2018-01-18T18:37:53.356Z,4.60
2018-01-18T18:40:22.104Z,4.50
2018-01-18T18:42:50.365Z,4.50
2018-01-18T18:45:18.634Z,4.50
2018-01-18T18:47:47.377Z,4.40
2018-01-18T18:50:16.768Z,4.40
2018-01-18T18:52:45.846Z,4.50
2018-01-18T18:55:14.101Z,4.40
2018-01-18T18:57:42.457Z,4.40
2018-01-18T19:00:10.696Z,4.40
2018-01-18T19:02:38.994Z,4.40
2018-01-18T19:05:07.249Z,4.30
2018-01-18T19:07:36.288Z,4.30
2018-01-18T19:10:04.609Z,4.30
2018-01-18T19:12:33.744Z,4.30
2018-01-18T19:15:03.045Z,4.30
2018-01-18T19:17:31.423Z,4.30
2018-01-18T19:19:59.766Z,4.30
2018-01-18T19:22:28.054Z,4.40
2018-01-18T19:24:57.241Z,4.40
2018-01-18T19:27:25.626Z,4.40
2018-01-18T19:29:53.894Z,4.40
2018-01-18T19:32:22.594Z,4.50
2018-01-18T19:34:50.961Z,4.40
2018-01-18T19:37:19.570Z,4.30
2018-01-18T19:39:47.793Z,4.20
2018-01-18T19:42:16.061Z,4.40
2018-01-18T19:44:44.308Z,4.30
2018-01-18T19:47:12.600Z,4.40
2018-01-18T19:49:40.868Z,4.30
2018-01-18T19:52:09.112Z,4.20
2018-01-18T19:54:37.385Z,4.20
2018-01-18T19:57:05.705Z,4.20
2018-01-18T19:59:34.017Z,4.20
2018-01-18T20:02:03.072Z,4.30
2018-01-18T20:04:31.918Z,4.30
2018-01-18T20:07:00.352Z,4.30
2018-01-18T20:09:29.420Z,4.20
2018-01-18T20:11:57.787Z,4.10
2018-01-18T20:14:26.071Z,4.10
2018-01-18T20:16:54.392Z,4.20
2018-01-18T20:19:22.793Z,4.00
2018-01-18T20:21:52.824Z,4.10
2018-01-18T20:24:21.446Z,4.00
2018-01-18T20:26:50.574Z,3.90
2018-01-18T20:29:19.688Z,3.90
2018-01-18T20:31:49.373Z,3.90
2018-01-18T20:34:17.734Z,3.80
2018-01-18T20:36:46.024Z,3.80
2018-01-18T20:39:14.648Z,3.90
2018-01-18T20:41:42.929Z,4.00
2018-01-18T20:44:11.188Z,4.00
2018-01-18T20:46:39.444Z,4.00
2018-01-18T20:49:09.133Z,3.90
2018-01-18T20:51:37.468Z,3.90
2018-01-18T20:54:07.179Z,3.90
2018-01-18T20:56:35.518Z,3.90
2018-01-18T20:59:04.528Z,3.90
2018-01-18T21:01:32.881Z,3.90
2018-01-18T21:04:01.239Z,4.00
2018-01-18T21:06:30.430Z,4.00
2018-01-18T21:08:59.457Z,4.00
2018-01-18T21:11:27.758Z,3.90
2018-01-18T21:13:56.282Z,4.00
2018-01-18T21:16:25.418Z,4.00
2018-01-18T21:18:54.853Z,3.90
2018-01-18T21:21:24.176Z,4.00
2018-01-18T21:23:53.276Z,4.00
2018-01-18T21:26:22.593Z,4.00
2018-01-18T21:28:51.840Z,4.00
2018-01-18T21:31:20.161Z,4.00
2018-01-18T21:33:49.264Z,3.90
2018-01-18T21:36:18.269Z,4.00
2018-01-18T21:38:46.832Z,3.90
2018-01-18T21:41:15.816Z,3.80
2018-01-18T21:43:44.872Z,3.70
2018-01-18T21:46:13.135Z,3.80
2018-01-18T21:48:42.373Z,3.80
2018-01-18T21:51:10.663Z,3.80
2018-01-18T21:53:38.925Z,3.80
2018-01-18T21:56:08.949Z,3.80
2018-01-18T21:58:37.173Z,3.80
2018-01-18T22:01:05.450Z,3.70
2018-01-18T22:03:33.725Z,3.70
2018-01-18T22:06:02.117Z,3.70
2018-01-18T22:08:30.376Z,3.70
2018-01-18T22:10:59.241Z,3.80
2018-01-18T22:13:27.488Z,3.80
2018-01-18T22:15:55.899Z,3.80
2018-01-18T22:18:24.221Z,3.80
2018-01-18T22:20:52.564Z,3.90
2018-01-18T22:23:21.697Z,3.90
2018-01-18T22:25:50.013Z,3.90
2018-01-18T22:28:18.328Z,3.90
2018-01-18T22:30:47.428Z,3.90
2018-01-18T22:33:15.712Z,3.90
2018-01-18T22:35:44.812Z,3.80
2018-01-18T22:38:13.080Z,3.90
2018-01-18T22:40:41.309Z,3.80
2018-01-18T22:43:09.545Z,3.90
2018-01-18T22:45:37.846Z,3.90
2018-01-18T22:48:06.237Z,3.90
2018-01-18T22:50:34.456Z,3.90
2018-01-18T22:53:04.085Z,3.80
2018-01-18T22:55:33.077Z,3.70
2018-01-18T22:58:01.320Z,3.80
2018-01-18T23:00:30.338Z,3.80
2018-01-18T23:02:58.572Z,3.80
2018-01-18T23:05:26.796Z,3.70
2018-01-18T23:07:55.118Z,3.60
2018-01-18T23:10:23.513Z,3.50
2018-01-18T23:12:51.732Z,3.40
2018-01-18T23:15:20.013Z,3.40
2018-01-18T23:17:49.034Z,3.30
2018-01-18T23:20:17.298Z,3.20
2018-01-18T23:22:45.568Z,3.20
2018-01-18T23:25:13.904Z,3.10
2018-01-18T23:27:43.029Z,2.90
2018-01-18T23:30:11.335Z,2.90
2018-01-18T23:32:39.557Z,2.80
2018-01-18T23:35:07.834Z,2.70
2018-01-18T23:37:36.921Z,2.50
2018-01-18T23:40:05.920Z,2.40
2018-01-18T23:42:34.329Z,2.40
2018-01-18T23:45:02.578Z,2.40
2018-01-18T23:47:31.608Z,2.30
2018-01-18T23:50:00.645Z,2.30
2018-01-18T23:52:28.936Z,2.30
2018-01-18T23:54:57.971Z,2.40
2018-01-18T23:57:26.213Z,2.30
2018-01-18T23:59:55.861Z,2.40
